Terminal Aerodrome Forecast
Issued by NWS

Home | Current Version | Previous Version | Text Only | Print | Product List | Glossary Off
Versions: 1 2 3 4 5 6 7 8 9 10 11 12 13 14 15 16 17 18 19 20

000
FTUS43 KMPX 281431 AAA
TAFRWF
TAF AMD
KRWF 281431Z 2815/2912 34009KT P6SM BKN010
     FM281600 34014G20KT P6SM SCT050
     FM290200 32008KT P6SM SCT050=

USA.gov is the U.S. government's official web portal to all federal, state and local government web resources and services.